Time;durP1;ratioP1;P1;durP2;ratioP2;P2;SDS_P1;SDS_P2;PMS_P1;PMS_P2;Temp;Humidity;BMP_temperature;BMP_pressure;BME280_temperature;BME280_humidity;BME280_pressure;Samples;Min_cycle;Max_cycle;Signal;HPM_P1;HPM_P2
2022/11/28 00:01:42;;;;;;;10.20;5.60;;;;;;;5.20;67.99;101800.84;4983393;28;20054;-94
2022/11/28 00:04:09;;;;;;;10.10;5.30;;;;;;;5.30;67.78;101814.44;4953723;28;20049;-92
2022/11/28 00:06:40;;;;;;;11.48;5.78;;;;;;;5.22;67.97;101825.63;4977610;28;20038;-92
2022/11/28 00:09:06;;;;;;;10.90;5.15;;;;;;;5.15;67.98;101791.41;4969202;28;20107;-91
2022/11/28 00:11:32;;;;;;;13.20;6.35;;;;;;;5.07;67.48;101776.78;4957012;28;20424;-91
2022/11/28 00:13:59;;;;;;;12.98;5.78;;;;;;;5.34;67.79;101841.75;4967420;28;20101;-91
2022/11/28 00:16:24;;;;;;;8.13;4.93;;;;;;;5.13;67.66;101793.31;4960813;28;20030;-91
2022/11/28 00:18:55;;;;;;;9.77;5.15;;;;;;;5.01;68.09;101784.31;4967733;28;20384;-89
2022/11/28 00:21:26;;;;;;;7.95;4.80;;;;;;;5.21;67.78;101812.38;4977191;28;20491;-92
2022/11/28 00:24:00;;;;;;;11.05;5.18;;;;;;;5.13;67.62;101786.22;4957083;28;20033;-88
2022/11/28 00:26:32;;;;;;;10.55;4.93;;;;;;;5.28;67.51;101803.88;4969944;28;20023;-89
2022/11/28 00:28:57;;;;;;;10.30;5.07;;;;;;;5.28;67.83;101809.22;4938776;28;20077;-91
2022/11/28 00:31:25;;;;;;;10.75;5.13;;;;;;;5.35;67.77;101819.50;4952398;28;20027;-91
2022/11/28 00:33:53;;;;;;;9.63;5.15;;;;;;;5.47;67.24;101813.34;4957091;28;20057;-92
2022/11/28 00:36:25;;;;;;;12.18;5.30;;;;;;;5.24;67.51;101791.72;4992475;28;20042;-90
2022/11/28 00:38:51;;;;;;;9.25;5.07;;;;;;;5.45;67.39;101800.09;4978607;28;20060;-90
2022/11/28 00:41:18;;;;;;;10.07;5.15;;;;;;;5.26;67.74;101779.13;4975764;28;20041;-90
2022/11/28 00:43:52;;;;;;;8.70;5.22;;;;;;;5.56;67.36;101811.91;4948020;28;20474;-91
2022/11/28 00:46:23;;;;;;;9.23;4.68;;;;;;;5.37;67.99;101814.91;4973297;28;20088;-90
2022/11/28 00:49:17;;;;;;;12.52;4.90;;;;;;;5.56;67.40;101815.41;4983409;28;20045;-89
2022/11/28 00:51:45;;;;;;;8.43;4.32;;;;;;;5.38;67.00;101772.13;4972510;28;20109;-91
2022/11/28 00:54:11;;;;;;;7.13;4.78;;;;;;;5.38;67.05;101766.78;4957394;28;20136;-90
2022/11/28 00:56:38;;;;;;;9.40;5.18;;;;;;;5.17;67.25;101747.72;4945146;28;20498;-90
2022/11/28 00:59:10;;;;;;;7.95;4.78;;;;;;;5.43;67.36;101794.03;4971991;28;20043;-90
2022/11/28 01:01:43;;;;;;;8.07;4.65;;;;;;;5.26;67.17;101754.25;4969572;28;20031;-89
2022/11/28 01:04:11;;;;;;;10.20;4.97;;;;;;;5.36;67.05;101763.41;4979693;28;20035;-91
2022/11/28 01:06:43;;;;;;;8.90;4.60;;;;;;;5.50;67.45;101794.47;4972672;28;20150;-90
2022/11/28 01:09:11;;;;;;;9.55;4.53;;;;;;;5.29;67.76;101768.28;4975433;28;20049;-90
2022/11/28 01:11:44;;;;;;;7.20;4.22;;;;;;;5.32;68.12;101777.88;4980212;28;20351;-91
2022/11/28 01:14:10;;;;;;;8.60;4.38;;;;;;;5.20;68.48;101766.19;4973793;28;20031;-90
2022/11/28 01:16:39;;;;;;;;;;;;;;;5.34;68.35;101772.41;4964373;28;20043;-89
2022/11/28 01:19:08;;;;;;;11.07;4.25;;;;;;;5.06;68.84;101740.44;4981811;28;19937;-89
2022/11/28 01:21:42;;;;;;;7.88;4.20;;;;;;;5.25;68.93;101780.09;4987019;28;20066;-89
2022/11/28 01:24:07;;;;;;;8.35;4.45;;;;;;;5.23;68.83;101763.31;4976818;28;20030;-90
2022/11/28 01:26:34;;;;;;;8.18;4.30;;;;;;;5.28;68.87;101766.53;4975746;28;20039;-92
2022/11/28 01:29:02;;;;;;;8.45;4.47;;;;;;;5.14;68.63;101731.94;4991734;28;20027;-93
2022/11/28 01:31:28;;;;;;;7.70;4.18;;;;;;;4.96;68.64;101698.47;4988576;28;20038;-89
2022/11/28 01:33:54;;;;;;;7.65;4.20;;;;;;;5.19;68.13;101713.81;4982179;28;20455;-89
2022/11/28 01:36:20;;;;;;;6.85;4.43;;;;;;;5.15;68.11;101696.34;4987395;28;20033;-90
2022/11/28 01:39:06;;;;;;;7.18;4.60;;;;;;;5.53;67.65;101719.59;4954614;28;20073;-85
2022/11/28 01:41:32;;;;;;;7.53;3.92;;;;;;;5.33;67.64;101712.06;4972887;28;20511;-87
2022/11/28 01:44:18;;;;;;;10.05;4.30;;;;;;;5.48;67.94;101735.91;4974474;28;20085;-91
2022/11/28 01:46:47;;;;;;;8.90;4.45;;;;;;;5.42;67.81;101733.63;4972378;28;20050;-90
2022/11/28 01:49:17;;;;;;;7.90;4.90;;;;;;;5.40;67.58;101714.22;4983549;28;20099;-88
2022/11/28 01:51:51;;;;;;;7.65;4.32;;;;;;;5.28;67.75;101710.53;4967667;28;20092;-90
2022/11/28 01:54:23;;;;;;;7.90;4.05;;;;;;;5.21;67.82;101709.25;5016827;28;20042;-89
2022/11/28 01:56:56;;;;;;;8.13;4.43;;;;;;;5.23;67.96;101704.66;4979987;28;20168;-89
2022/11/28 01:59:25;;;;;;;10.60;4.45;;;;;;;5.14;68.25;101688.41;4965051;28;20086;-89
2022/11/28 02:01:53;;;;;;;8.13;4.53;;;;;;;5.13;68.31;101689.34;4957263;28;20031;-90
2022/11/28 02:04:19;;;;;;;6.70;4.15;;;;;;;5.15;68.06;101691.00;4964954;28;20062;-90
2022/11/28 02:06:46;;;;;;;7.22;4.07;;;;;;;5.22;67.98;101702.97;4978336;28;20031;-90
2022/11/28 02:09:13;;;;;;;7.80;4.55;;;;;;;5.22;68.04;101697.63;4952966;28;20142;-91
2022/11/28 02:15:14;;;;;;;9.13;4.78;;;;;;;4.95;68.42;101667.44;5025938;28;20069;-90
2022/11/28 02:18:34;;;;;;;8.50;4.72;;;;;;;5.19;68.54;101705.81;4997924;28;20030;-93
2022/11/28 02:21:35;;;;;;;9.07;4.85;;;;;;;5.17;68.64;101699.72;5011306;28;20042;-94
2022/11/28 02:24:22;;;;;;;10.00;4.80;;;;;;;5.14;68.89;101709.75;4965695;28;20073;-88
2022/11/28 02:27:05;;;;;;;7.63;4.65;;;;;;;5.17;68.56;101709.53;4990111;28;20049;-89
2022/11/28 02:29:50;;;;;;;8.20;4.72;;;;;;;5.11;68.72;101705.47;4989083;28;20112;-88
2022/11/28 02:32:17;;;;;;;9.82;4.60;;;;;;;5.11;68.89;101693.97;4989628;28;20392;-90
2022/11/28 02:34:57;;;;;;;12.25;4.53;;;;;;;5.18;68.46;101701.44;4976845;28;20034;-91
2022/11/28 02:37:45;;;;;;;8.90;4.53;;;;;;;5.07;68.63;101687.97;4977481;28;20030;-90
2022/11/28 02:40:59;;;;;;;8.10;4.60;;;;;;;5.02;68.55;101680.25;4958704;28;20034;-90
2022/11/28 02:43:38;;;;;;;9.30;4.60;;;;;;;5.11;68.29;101694.81;4912377;29;20054;-91
2022/11/28 02:46:41;;;;;;;9.57;5.05;;;;;;;5.13;68.50;101697.34;4965419;28;20140;-90
2022/11/28 02:49:12;;;;;;;8.90;4.82;;;;;;;4.74;69.02;101649.22;4983201;28;20552;-90
2022/11/28 02:51:47;;;;;;;10.13;5.25;;;;;;;4.98;69.18;101699.22;4971930;28;20125;-91
2022/11/28 02:54:15;;;;;;;11.07;5.35;;;;;;;4.89;69.61;101700.66;4975468;28;20034;-91
2022/11/28 02:56:48;;;;;;;10.68;5.28;;;;;;;5.01;69.52;101704.34;4974317;28;20035;-90
2022/11/28 02:59:39;;;;;;;10.77;5.47;;;;;;;4.99;69.50;101701.81;4943914;28;20050;-88
2022/11/28 03:02:16;;;;;;;9.82;5.18;;;;;;;4.60;69.84;101667.91;4980689;28;20137;-92
2022/11/28 03:05:00;;;;;;;11.05;5.40;;;;;;;4.83;70.20;101701.06;4946384;28;20089;-91
2022/11/28 03:08:02;;;;;;;9.48;5.20;;;;;;;4.74;70.34;101707.84;4992040;28;20068;-90
2022/11/28 03:10:51;;;;;;;9.60;5.38;;;;;;;4.70;70.85;101705.47;4995703;28;20062;-91
2022/11/28 03:13:26;;;;;;;10.55;5.55;;;;;;;4.64;71.23;101704.06;4967341;28;20057;-89
2022/11/28 03:16:21;;;;;;;12.43;5.70;;;;;;;4.44;71.59;101684.84;4968126;28;20567;-89
2022/11/28 03:19:20;;;;;;;11.37;5.93;;;;;;;4.65;71.10;101703.09;4972326;28;20044;-93
2022/11/28 03:22:02;;;;;;;11.15;5.68;;;;;;;4.31;70.84;101651.97;4982763;28;20121;-91
2022/11/28 03:24:46;;;;;;;10.75;5.60;;;;;;;4.69;70.37;101693.97;4966609;28;20088;-92
2022/11/28 03:27:35;;;;;;;10.45;5.50;;;;;;;4.61;70.78;101694.47;4988104;28;20077;-92
2022/11/28 03:30:14;;;;;;;10.38;5.60;;;;;;;4.46;70.57;101670.59;4968327;28;20043;-92
2022/11/28 03:32:40;;;;;;;11.60;5.55;;;;;;;4.61;70.59;101696.25;4957182;28;20047;-91
2022/11/28 03:35:08;;;;;;;;;;;;;;;4.58;70.62;101704.44;4966484;28;20113;-91
2022/11/28 03:37:38;;;;;;;9.48;4.57;;;;;;;4.51;70.89;101700.44;4969596;28;19925;-91
2022/11/28 03:40:09;;;;;;;11.05;5.78;;;;;;;4.43;70.78;101684.97;4938638;28;20045;-92
2022/11/28 03:42:42;;;;;;;11.63;5.65;;;;;;;4.44;71.23;101691.97;4968752;28;20045;-90
2022/11/28 03:45:16;;;;;;;9.25;5.72;;;;;;;4.37;71.20;101683.50;4958279;28;20120;-90
2022/11/28 03:47:48;;;;;;;12.80;5.93;;;;;;;4.49;71.13;101691.69;4953619;28;20085;-93
2022/11/28 03:50:22;;;;;;;12.27;6.10;;;;;;;4.54;71.04;101702.91;4965539;28;20042;-91
2022/11/28 03:52:54;;;;;;;12.23;6.20;;;;;;;4.54;70.75;101685.16;4990510;28;20038;-91
2022/11/28 03:55:26;;;;;;;12.27;5.88;;;;;;;4.47;70.88;101674.94;4953065;28;20519;-90
2022/11/28 03:58:16;;;;;;;12.98;6.82;;;;;;;4.46;70.95;101681.25;4961357;28;20057;-90
2022/11/28 04:00:50;;;;;;;12.90;6.78;;;;;;;4.51;70.97;101689.78;4987549;28;20038;-91
2022/11/28 04:03:38;;;;;;;12.23;6.55;;;;;;;4.48;71.27;101700.66;4986945;28;20049;-90
2022/11/28 04:06:25;;;;;;;10.13;5.90;;;;;;;4.43;71.57;101701.78;4975706;28;20148;-90
2022/11/28 04:09:06;;;;;;;10.55;5.70;;;;;;;4.53;71.14;101699.41;4960226;28;20052;-90
2022/11/28 04:12:06;;;;;;;10.45;5.47;;;;;;;4.44;71.81;101699.97;4962071;28;20454;-90
2022/11/28 04:14:52;;;;;;;11.00;5.72;;;;;;;4.52;71.29;101691.50;4974319;28;20045;-90
2022/11/28 04:17:19;;;;;;;;;;;;;;;4.54;71.51;101701.13;4967378;28;20049;-89
2022/11/28 04:19:49;;;;;;;11.00;5.93;;;;;;;4.44;71.50;101686.66;4989605;28;19996;-92
2022/11/28 04:22:19;;;;;;;11.15;6.28;;;;;;;4.40;71.46;101678.03;4953898;28;20026;-92
2022/11/28 04:24:48;;;;;;;11.52;6.25;;;;;;;4.34;71.67;101681.06;4972026;28;20034;-91
2022/11/28 04:27:17;;;;;;;10.88;5.40;;;;;;;4.46;71.43;101691.91;4975004;28;20031;-91
2022/11/28 04:29:46;;;;;;;11.10;5.65;;;;;;;4.28;71.56;101668.13;4969458;28;20141;-89
2022/11/28 04:32:17;;;;;;;10.07;5.78;;;;;;;4.41;71.85;101702.84;4960080;28;20120;-89
2022/11/28 04:34:45;;;;;;;9.75;5.47;;;;;;;4.35;71.89;101684.56;4987474;28;20089;-92
2022/11/28 04:37:15;;;;;;;10.20;5.72;;;;;;;4.27;71.91;101660.25;4972127;28;20026;-92
2022/11/28 04:39:44;;;;;;;10.82;5.82;;;;;;;4.40;71.61;101672.69;4990860;28;20053;-90
2022/11/28 04:42:17;;;;;;;10.10;5.72;;;;;;;4.33;71.41;101659.84;4958406;28;20039;-90
2022/11/28 04:45:08;;;;;;;10.10;5.32;;;;;;;4.54;71.58;101686.94;4956250;28;20038;-88
2022/11/28 04:47:37;;;;;;;9.40;5.03;;;;;;;4.40;71.60;101675.34;4981467;28;20042;-91
2022/11/28 04:50:05;;;;;;;10.60;5.63;;;;;;;4.38;71.69;101679.91;4991150;28;20034;-92
2022/11/28 04:52:55;;;;;;;11.90;4.95;;;;;;;4.37;71.43;101672.88;4958179;28;20132;-91
2022/11/28 04:55:44;;;;;;;9.85;5.25;;;;;;;4.33;71.84;101687.34;4974272;28;20506;-90
2022/11/28 04:58:13;;;;;;;9.95;5.43;;;;;;;4.07;71.93;101654.31;4975953;28;20042;-90
2022/11/28 05:00:41;;;;;;;10.35;5.55;;;;;;;4.09;71.86;101663.06;4970134;28;20448;-91
2022/11/28 05:03:07;;;;;;;10.50;5.30;;;;;;;4.28;71.71;101678.75;4949118;28;20041;-92
2022/11/28 05:05:49;;;;;;;10.60;5.47;;;;;;;4.35;71.76;101696.06;4955243;28;20027;-91
2022/11/28 05:08:14;;;;;;;10.50;5.43;;;;;;;4.28;71.85;101688.56;4986266;28;20039;-94
2022/11/28 05:10:41;;;;;;;10.70;5.78;;;;;;;4.20;71.87;101683.72;4973484;28;20039;-90
2022/11/28 05:13:06;;;;;;;;;;;;;;;4.26;71.94;101690.47;5009475;28;20072;-92
2022/11/28 05:15:32;;;;;;;;;;;;;;;4.22;71.97;101701.31;4993691;28;20229;-91
2022/11/28 05:17:58;;;;;;;8.83;4.47;;;;;;;3.94;72.06;101664.03;4984700;28;19989;-89
2022/11/28 05:20:28;;;;;;;13.90;5.78;;;;;;;4.13;72.07;101693.03;4955229;28;20137;-90
2022/11/28 05:23:10;;;;;;;10.48;5.57;;;;;;;4.10;71.98;101693.22;4981888;28;20042;-90
2022/11/28 05:25:40;;;;;;;13.55;6.03;;;;;;;4.07;71.55;101685.41;4992865;28;20091;-89
2022/11/28 05:28:06;;;;;;;10.80;5.22;;;;;;;4.01;71.43;101665.38;4979544;28;20046;-90
2022/11/28 05:30:36;;;;;;;14.20;6.35;;;;;;;3.97;71.68;101685.13;4977231;28;20466;-92
2022/11/28 05:33:05;;;;;;;11.57;6.07;;;;;;;3.92;71.79;101669.44;4994483;28;20042;-92
2022/11/28 05:35:33;;;;;;;13.18;6.13;;;;;;;4.02;71.53;101678.56;4979486;28;20462;-91
2022/11/28 05:38:00;;;;;;;11.73;6.07;;;;;;;3.90;71.21;101658.03;4941949;28;20239;-93
2022/11/28 05:40:26;;;;;;;12.70;5.85;;;;;;;3.96;71.04;101665.66;4979186;28;20046;-91
2022/11/28 05:42:59;;;;;;;11.35;5.97;;;;;;;4.08;70.96;101708.44;4980334;28;20028;-94
2022/11/28 05:45:26;;;;;;;11.43;6.30;;;;;;;3.79;71.07;101648.06;4978163;28;20047;-93
2022/11/28 05:48:19;;;;;;;11.32;6.07;;;;;;;3.86;71.07;101672.47;4973265;28;20050;-92
2022/11/28 05:50:49;;;;;;;12.70;6.00;;;;;;;4.01;70.64;101687.50;4991154;28;20047;-93
2022/11/28 05:53:20;;;;;;;10.40;5.18;;;;;;;4.05;70.71;101692.63;4977453;28;20046;-94
2022/11/28 05:55:47;;;;;;;12.20;5.88;;;;;;;3.76;71.12;101652.69;4981028;28;20051;-95
2022/11/28 05:58:20;;;;;;;13.38;6.28;;;;;;;3.94;70.83;101670.19;4966140;28;20065;-96
2022/11/28 06:03:44;;;;;;;13.40;6.10;;;;;;;4.22;70.11;101709.28;5154612;23;20058;-92
2022/11/28 06:07:10;;;;;;;10.75;6.05;;;;;;;4.21;70.28;101704.06;5071317;22;20158;-95
2022/11/28 06:09:52;;;;;;;11.48;6.07;;;;;;;4.28;70.33;101704.53;5030653;28;20044;-96
2022/11/28 06:12:53;;;;;;;13.95;5.72;;;;;;;4.27;69.71;101702.84;5099916;23;21394;-95
2022/11/28 06:23:54;;;;;;;10.95;5.68;;;;;;;4.00;69.31;101653.00;4996453;28;20057;-92
2022/11/28 06:26:59;;;;;;;13.10;5.97;;;;;;;4.34;69.19;101694.38;5001510;23;20050;-88
2022/11/28 06:29:37;;;;;;;10.82;5.50;;;;;;;4.14;69.13;101657.47;4977281;28;20917;-89
2022/11/28 06:32:08;;;;;;;11.18;5.57;;;;;;;4.22;68.95;101663.19;4972331;28;20038;-94
2022/11/28 06:34:35;;;;;;;13.45;6.00;;;;;;;4.16;68.84;101655.56;4986357;28;20064;-82
2022/11/28 06:37:07;;;;;;;14.48;5.82;;;;;;;4.35;68.61;101666.78;5000110;28;20081;-91
2022/11/28 06:39:37;;;;;;;11.02;5.50;;;;;;;4.41;68.57;101674.41;4982465;28;20038;-91
2022/11/28 06:42:08;;;;;;;13.80;6.30;;;;;;;4.57;68.43;101690.28;4977266;28;20047;-93
2022/11/28 06:44:50;;;;;;;10.93;4.85;;;;;;;4.44;68.17;101663.53;4953325;28;20540;-94
2022/11/28 06:47:35;;;;;;;13.95;6.57;;;;;;;4.28;68.33;101645.97;4996108;28;20057;-94
2022/11/28 06:50:20;;;;;;;11.05;5.38;;;;;;;4.52;68.09;101688.81;4999859;28;20033;-93
2022/11/28 06:53:13;;;;;;;12.10;5.93;;;;;;;4.23;67.74;101627.63;4988912;28;20035;-91
2022/11/28 06:55:47;;;;;;;8.88;4.85;;;;;;;4.42;67.79;101659.25;4996142;28;20065;-93
2022/11/28 06:58:28;;;;;;;15.65;6.65;;;;;;;4.41;67.43;101642.44;4947919;28;20038;-93
2022/11/28 07:01:16;;;;;;;10.07;5.18;;;;;;;4.58;67.00;101672.47;4999939;28;20110;-92
2022/11/28 07:03:43;;;;;;;9.88;5.20;;;;;;;4.46;66.97;101628.00;4984534;28;20042;-91
2022/11/28 07:06:16;;;;;;;12.82;5.47;;;;;;;4.78;66.77;101677.38;4972359;28;20042;-93
2022/11/28 07:08:46;;;;;;;14.25;5.93;;;;;;;4.69;66.53;101656.66;4988737;28;20046;-91
2022/11/28 07:11:41;;;;;;;10.40;5.72;;;;;;;4.86;66.31;101690.22;5000198;28;20034;-93
2022/11/28 07:14:09;;;;;;;13.20;6.30;;;;;;;4.72;66.01;101637.81;4975408;28;20114;-91
2022/11/28 07:17:29;;;;;;;9.32;4.97;;;;;;;4.76;65.86;101641.16;4966167;28;20034;-94
2022/11/28 07:20:15;;;;;;;8.85;5.07;;;;;;;4.56;65.98;101629.09;5001882;28;20034;-92
2022/11/28 07:22:47;;;;;;;10.93;5.75;;;;;;;4.58;65.96;101621.88;4969518;28;20054;-92
2022/11/28 07:25:13;;;;;;;11.73;5.25;;;;;;;4.62;65.60;101626.91;4997085;28;20034;-94
2022/11/28 07:27:45;;;;;;;11.15;5.55;;;;;;;4.64;65.59;101640.13;4961693;29;20063;-92
2022/11/28 07:30:22;;;;;;;10.27;5.60;;;;;;;4.66;65.58;101630.22;4963177;28;20046;-92
2022/11/28 07:32:54;;;;;;;10.90;5.55;;;;;;;4.64;66.05;101624.16;4948229;28;20061;-89
2022/11/28 07:35:33;;;;;;;12.73;5.45;;;;;;;4.83;66.33;101635.31;4949961;28;20047;-92
2022/11/28 07:38:03;;;;;;;12.18;6.00;;;;;;;4.88;66.42;101624.34;4958447;28;20074;-91
2022/11/28 07:40:55;;;;;;;10.93;5.35;;;;;;;4.81;65.80;101613.22;4956971;28;20050;-95
2022/11/28 07:44:03;;;;;;;12.50;5.75;;;;;;;4.85;65.53;101604.09;4962876;28;20054;-93
2022/11/28 07:46:32;;;;;;;10.15;5.75;;;;;;;5.02;64.99;101644.78;4967183;28;20046;-93
2022/11/28 07:49:11;;;;;;;10.70;5.50;;;;;;;4.97;64.81;101618.41;4951715;28;20097;-95
2022/11/28 07:52:19;;;;;;;9.90;5.03;;;;;;;5.16;64.30;101659.84;4974649;28;20042;-93
2022/11/28 07:55:10;;;;;;;9.70;4.70;;;;;;;4.92;64.43;101630.34;4983384;28;20058;-93
2022/11/28 07:57:39;;;;;;;11.30;5.03;;;;;;;4.89;63.97;101604.72;4942090;28;20107;-92
2022/11/28 08:00:51;;;;;;;9.25;4.15;;;;;;;5.04;63.54;101624.19;4933493;29;20702;-90
2022/11/28 08:03:23;;;;;;;8.85;4.57;;;;;;;4.88;63.92;101618.19;4959105;28;20030;-94
2022/11/28 08:06:07;;;;;;;9.82;5.10;;;;;;;5.14;64.04;101672.44;4971177;28;20034;-93
2022/11/28 08:08:40;;;;;;;11.60;5.43;;;;;;;4.81;63.76;101607.91;4974198;28;20022;-91
2022/11/28 08:11:21;;;;;;;12.93;6.05;;;;;;;4.95;64.44;101646.97;4970075;28;20047;-93
2022/11/28 08:13:48;;;;;;;9.80;4.70;;;;;;;5.00;63.80;101620.88;4944725;28;20043;-93
2022/11/28 08:16:23;;;;;;;9.90;5.28;;;;;;;5.17;64.14;101651.72;4929889;29;20043;-92
2022/11/28 08:18:49;;;;;;;9.40;4.72;;;;;;;5.25;63.85;101652.09;4941821;28;20041;-93
2022/11/28 08:21:16;;;;;;;10.35;5.30;;;;;;;5.25;63.59;101629.91;4948212;28;20431;-92
2022/11/28 08:23:44;;;;;;;10.10;4.88;;;;;;;5.04;63.69;101602.88;4951926;28;20063;-92
2022/11/28 08:26:18;;;;;;;13.90;5.70;;;;;;;4.94;63.83;101599.97;4959165;28;20101;-91
2022/11/28 08:28:52;;;;;;;11.88;5.80;;;;;;;5.13;63.96;101607.59;4984912;28;20065;-92
2022/11/28 08:31:38;;;;;;;9.98;5.43;;;;;;;5.03;64.25;101593.16;4975258;28;20362;-93
2022/11/28 08:34:17;;;;;;;9.98;5.30;;;;;;;5.31;64.04;101652.63;4960687;28;20132;-93
2022/11/28 08:36:49;;;;;;;10.20;4.95;;;;;;;5.15;64.39;101632.34;4980145;28;20042;-93
2022/11/28 08:39:15;;;;;;;9.90;4.70;;;;;;;5.11;64.93;101624.66;4982327;28;20121;-93
2022/11/28 08:41:45;;;;;;;10.63;5.30;;;;;;;4.95;65.61;101620.31;4981895;28;20069;-91
2022/11/28 08:44:12;;;;;;;8.80;4.78;;;;;;;4.85;66.37;101614.75;4976338;28;20050;-93
2022/11/28 08:46:38;;;;;;;9.38;5.25;;;;;;;4.84;67.24;101615.69;4982121;28;20026;-93
2022/11/28 08:49:06;;;;;;;9.52;5.32;;;;;;;4.99;67.76;101623.66;4977775;28;20034;-92
2022/11/28 08:51:49;;;;;;;8.80;4.97;;;;;;;5.19;68.11;101649.81;4995382;28;20054;-92
2022/11/28 08:54:25;;;;;;;9.77;5.40;;;;;;;5.15;67.64;101631.47;4993851;28;20058;-93
2022/11/28 08:56:53;;;;;;;8.25;5.00;;;;;;;4.95;67.97;101606.16;4996394;28;20058;-92
2022/11/28 08:59:24;;;;;;;8.32;4.70;;;;;;;5.25;67.82;101638.75;4982613;28;20046;-93
2022/11/28 09:01:55;;;;;;;9.93;4.75;;;;;;;5.14;68.10;101635.94;4982121;28;20050;-91
2022/11/28 09:04:22;;;;;;;9.40;5.13;;;;;;;5.22;68.25;101622.97;4958457;28;20053;-91
2022/11/28 09:06:51;;;;;;;11.13;5.40;;;;;;;5.01;68.39;101597.72;4964133;28;20050;-92
2022/11/28 09:09:32;;;;;;;11.00;5.13;;;;;;;5.14;68.27;101613.78;4962308;28;20047;-93
2022/11/28 09:11:58;;;;;;;11.93;5.15;;;;;;;5.00;68.17;101593.38;4977635;28;20027;-91
2022/11/28 09:14:29;;;;;;;10.52;5.20;;;;;;;4.97;67.82;101601.59;4957773;28;20503;-91
2022/11/28 09:16:55;;;;;;;10.75;5.22;;;;;;;5.03;67.93;101586.03;4976179;28;20031;-92
2022/11/28 09:19:22;;;;;;;10.07;5.07;;;;;;;4.96;68.04;101583.88;4972015;28;20050;-92
2022/11/28 09:21:50;;;;;;;8.27;4.60;;;;;;;4.97;68.62;101598.91;4950522;28;20069;-92
2022/11/28 09:24:18;;;;;;;10.75;5.35;;;;;;;4.79;69.76;101569.84;4969992;28;20136;-93
2022/11/28 09:26:46;;;;;;;13.27;5.50;;;;;;;5.02;69.96;101596.78;4981628;28;20418;-92
2022/11/28 09:29:15;;;;;;;9.82;5.43;;;;;;;4.83;70.30;101562.53;4982035;28;20055;-91
2022/11/28 09:31:49;;;;;;;14.10;7.18;;;;;;;5.10;70.47;101585.63;4955764;28;20380;-92
2022/11/28 09:34:16;;;;;;;11.07;5.30;;;;;;;5.14;69.43;101558.66;4971091;28;20047;-93
2022/11/28 09:36:48;;;;;;;9.02;4.80;;;;;;;5.10;68.50;101538.47;4986623;28;20042;-91
2022/11/28 09:39:18;;;;;;;9.82;5.20;;;;;;;5.45;68.31;101548.53;4984932;28;20047;-92
2022/11/28 09:42:06;;;;;;;8.75;4.43;;;;;;;5.72;67.51;101557.28;4968789;28;20042;-92
2022/11/28 09:44:38;;;;;;;9.77;4.70;;;;;;;5.64;66.70;101543.66;4997210;28;20046;-93
2022/11/28 09:47:13;;;;;;;9.95;5.15;;;;;;;5.59;67.21;101524.44;4949940;28;20151;-91
2022/11/28 09:50:19;;;;;;;10.30;5.22;;;;;;;5.71;66.74;101531.59;4969964;28;20038;-94
2022/11/28 09:52:57;;;;;;;11.13;5.07;;;;;;;5.87;67.01;101543.84;4970116;28;20140;-93
2022/11/28 09:55:53;;;;;;;10.40;5.15;;;;;;;5.88;66.54;101540.22;4997388;28;20049;-93
2022/11/28 09:58:39;;;;;;;10.93;5.22;;;;;;;5.85;67.18;101559.09;4979986;28;20353;-91
2022/11/28 10:01:49;;;;;;;9.55;5.63;;;;;;;5.84;66.96;101525.38;4999267;28;20166;-92
2022/11/28 10:04:26;;;;;;;9.32;4.90;;;;;;;6.03;66.39;101538.28;4994614;28;20057;-91
2022/11/28 10:07:34;;;;;;;13.75;6.40;;;;;;;5.86;66.57;101529.63;4991049;28;20034;-93
2022/11/28 10:10:23;;;;;;;10.93;5.38;;;;;;;6.21;65.92;101520.94;5008067;28;20022;-92
2022/11/28 10:12:59;;;;;;;9.13;5.28;;;;;;;6.36;66.07;101539.47;5011177;28;20038;-92
2022/11/28 10:16:23;;;;;;;11.63;5.05;;;;;;;6.26;65.71;101508.09;4992075;28;20098;-92
2022/11/28 10:18:55;;;;;;;8.40;4.95;;;;;;;6.40;65.96;101541.81;4934853;29;20020;-91
2022/11/28 10:22:04;;;;;;;8.73;4.88;;;;;;;6.42;65.87;101526.53;4983179;28;20050;-91
2022/11/28 10:24:53;;;;;;;9.48;4.88;;;;;;;6.29;66.52;101526.56;5002100;28;20049;-92
2022/11/28 10:27:56;;;;;;;10.48;5.20;;;;;;;6.06;66.95;101501.56;4991928;28;20605;-93
2022/11/28 10:30:47;;;;;;;9.05;4.70;;;;;;;5.92;67.07;101477.63;4979455;28;20066;-92
2022/11/28 10:33:54;;;;;;;13.57;5.82;;;;;;;6.17;67.65;101532.81;4962912;28;20054;-92
2022/11/28 10:37:18;;;;;;;13.13;5.90;;;;;;;6.06;68.19;101520.25;4997885;28;20027;-91
2022/11/28 10:40:14;;;;;;;12.38;6.22;;;;;;;5.96;68.81;101521.00;4970468;28;20031;-93
2022/11/28 10:43:31;;;;;;;13.10;5.55;;;;;;;5.94;68.78;101497.09;4980174;28;20047;-95
2022/11/28 10:46:17;;;;;;;11.18;5.45;;;;;;;6.18;67.95;101521.19;4987142;28;20043;-92
2022/11/28 10:48:58;;;;;;;10.57;5.10;;;;;;;6.13;68.36;101526.84;4978517;28;20035;-91
2022/11/28 10:52:02;;;;;;;11.38;5.70;;;;;;;6.07;68.66;101518.44;4953326;28;20038;-92
2022/11/28 10:55:00;;;;;;;11.63;5.38;;;;;;;5.75;68.50;101478.00;4968734;28;20041;-91
2022/11/28 10:58:13;;;;;;;11.13;5.75;;;;;;;5.91;68.68;101494.63;4959978;29;20102;-93
2022/11/28 11:01:09;;;;;;;10.63;5.47;;;;;;;5.93;68.79;101480.19;4975220;28;20052;-92
2022/11/28 11:03:41;;;;;;;14.43;6.22;;;;;;;6.11;68.37;101488.72;4970409;28;20047;-92
2022/11/28 11:06:14;;;;;;;12.85;5.88;;;;;;;5.97;68.65;101486.22;4946687;28;20042;-94
2022/11/28 11:08:43;;;;;;;11.10;5.82;;;;;;;6.11;68.62;101494.06;4944182;28;20054;-94
2022/11/28 11:11:26;;;;;;;14.85;6.10;;;;;;;5.99;68.66;101497.59;4979142;28;20031;-94
2022/11/28 11:14:15;;;;;;;12.73;6.28;;;;;;;5.76;69.23;101466.34;4969388;28;20043;-93
2022/11/28 11:16:55;;;;;;;15.43;5.95;;;;;;;5.55;69.56;101455.41;4963978;28;20074;-92
2022/11/28 11:19:45;;;;;;;14.05;7.00;;;;;;;5.75;68.87;101478.00;4973920;28;20167;-92
2022/11/28 11:22:35;;;;;;;15.32;7.47;;;;;;;5.83;69.26;101491.63;4957407;28;20039;-94
2022/11/28 11:25:27;;;;;;;11.77;6.07;;;;;;;5.84;69.04;101498.69;4909421;29;20047;-94
2022/11/28 11:28:08;;;;;;;13.93;5.97;;;;;;;5.45;69.59;101452.53;4967899;28;20061;-93
2022/11/28 11:30:46;;;;;;;12.48;6.43;;;;;;;5.59;69.76;101481.75;4974206;28;20396;-93
2022/11/28 11:33:46;;;;;;;14.75;6.72;;;;;;;5.75;69.52;101496.69;4992650;28;20122;-94
2022/11/28 11:36:23;;;;;;;15.18;6.75;;;;;;;5.67;69.94;101511.41;4988656;28;20105;-93
2022/11/28 11:39:05;;;;;;;15.15;7.20;;;;;;;5.47;69.04;101445.28;4946405;28;20035;-92
2022/11/28 11:41:35;;;;;;;14.23;6.50;;;;;;;5.59;68.93;101470.22;4987745;28;20038;-92
2022/11/28 11:44:29;;;;;;;14.05;7.15;;;;;;;5.70;69.33;101475.66;4951557;28;20039;-93
2022/11/28 11:46:56;;;;;;;10.90;5.65;;;;;;;5.66;69.11;101460.81;5002325;28;20027;-93
2022/11/28 11:50:05;;;;;;;14.98;7.28;;;;;;;5.72;69.23;101473.75;4992693;28;20030;-93
2022/11/28 11:52:32;;;;;;;13.63;6.68;;;;;;;5.44;69.20;101443.69;4970995;28;20099;-92
2022/11/28 11:55:04;;;;;;;16.48;7.00;;;;;;;5.75;69.04;101470.00;4991063;28;20030;-93
2022/11/28 11:57:41;;;;;;;12.75;6.68;;;;;;;5.45;69.16;101440.03;4976632;28;20145;-92
2022/11/28 12:00:21;;;;;;;12.95;6.80;;;;;;;5.44;69.08;101445.50;4973430;28;20038;-91
2022/11/28 12:03:29;;;;;;;12.82;6.53;;;;;;;5.81;68.79;101485.56;4959568;28;20065;-94
2022/11/28 12:06:03;;;;;;;14.13;6.88;;;;;;;5.79;68.66;101479.50;4936065;28;20046;-92
2022/11/28 12:08:37;;;;;;;14.00;6.72;;;;;;;5.81;68.50;101480.25;4968366;28;20030;-94
2022/11/28 12:11:29;;;;;;;16.02;7.22;;;;;;;5.82;68.18;101463.25;4961326;28;20089;-93
2022/11/28 12:14:16;;;;;;;16.40;7.35;;;;;;;5.59;67.92;101422.22;4987856;28;20348;-93
2022/11/28 12:17:31;;;;;;;14.13;7.18;;;;;;;5.67;68.25;101447.38;4938833;28;20038;-92
2022/11/28 12:20:23;;;;;;;17.50;7.25;;;;;;;5.53;68.56;101444.00;4949259;28;20042;-92
2022/11/28 12:23:12;;;;;;;14.10;6.53;;;;;;;5.92;67.88;101474.94;4983161;28;20042;-92
2022/11/28 12:26:21;;;;;;;16.58;7.03;;;;;;;5.74;68.04;101462.97;4978044;28;20057;-91
2022/11/28 12:29:21;;;;;;;14.82;7.43;;;;;;;5.52;68.62;101453.78;4963602;28;20053;-92
2022/11/28 12:32:27;;;;;;;14.82;6.95;;;;;;;5.73;68.25;101462.09;4986033;28;20136;-91
2022/11/28 12:35:49;;;;;;;15.27;7.03;;;;;;;5.56;67.99;101439.28;4975971;28;20065;-94
2022/11/28 12:39:17;;;;;;;16.67;6.78;;;;;;;5.47;68.10;101418.59;4917439;29;20126;-95